Time;durP1;ratioP1;P1;durP2;ratioP2;P2;SDS_P1;SDS_P2;PMS_P1;PMS_P2;Temp;Humidity;BMP_temperature;BMP_pressure;BME280_temperature;BME280_humidity;BME280_pressure;Samples;Min_cycle;Max_cycle;Signal;HPM_P1;HPM_P2
2022/11/18 00:00:56;;;;;;;75.70;40.20;;;7.30;99.90;;;;;;5071166;28;20067;-51
2022/11/18 00:03:22;;;;;;;85.63;44.90;;;7.30;99.90;;;;;;5066849;28;20410;-53
2022/11/18 00:05:55;;;;;;;92.10;43.92;;;7.40;99.90;;;;;;5051179;28;20397;-51
2022/11/18 00:08:21;;;;;;;85.13;43.88;;;7.40;99.90;;;;;;5051508;28;20052;-54
2022/11/18 00:10:47;;;;;;;90.85;44.47;;;7.40;99.90;;;;;;5051715;28;20036;-57
2022/11/18 00:16:04;;;;;;;96.28;48.88;;;7.40;99.90;;;;;;5069622;28;20044;-52
2022/11/18 00:18:29;;;;;;;89.63;44.95;;;7.40;99.90;;;;;;5065597;28;20040;-54
2022/11/18 00:20:59;;;;;;;91.77;45.70;;;7.40;99.90;;;;;;5051200;28;20383;-54
2022/11/18 00:23:25;;;;;;;90.45;45.42;;;7.40;99.90;;;;;;5050053;28;20517;-54
2022/11/18 00:25:50;;;;;;;92.93;46.70;;;7.40;99.90;;;;;;5051362;28;20278;-52
2022/11/18 00:28:16;;;;;;;95.67;46.87;;;7.40;99.90;;;;;;5051329;28;20045;-55
2022/11/18 00:30:41;;;;;;;94.67;47.10;;;7.40;99.90;;;;;;5051279;28;20048;-52
2022/11/18 00:33:07;;;;;;;87.57;42.80;;;7.40;99.90;;;;;;5049981;28;20041;-52
2022/11/18 00:35:32;;;;;;;88.30;44.10;;;7.40;99.90;;;;;;5051431;28;20048;-51
2022/11/18 00:37:58;;;;;;;94.53;46.60;;;7.40;99.90;;;;;;5050820;28;20037;-57
2022/11/18 00:40:24;;;;;;;84.57;43.83;;;7.50;99.90;;;;;;5068938;28;20430;-52
2022/11/18 00:42:50;;;;;;;89.32;45.92;;;7.40;99.90;;;;;;5070441;28;20044;-58
2022/11/18 00:45:16;;;;;;;93.57;46.93;;;7.40;99.90;;;;;;5069673;28;20051;-51
2022/11/18 00:47:41;;;;;;;94.35;47.47;;;7.40;99.90;;;;;;5068181;28;20063;-54
2022/11/18 00:50:07;;;;;;;93.07;47.33;;;7.40;99.90;;;;;;5070059;28;20040;-54
2022/11/18 00:52:33;;;;;;;103.40;49.88;;;7.40;99.90;;;;;;5070162;28;20036;-51
2022/11/18 00:54:58;;;;;;;103.67;48.47;;;7.40;99.90;;;;;;5068393;28;20485;-55
2022/11/18 00:57:24;;;;;;;108.37;52.83;;;7.40;99.90;;;;;;5068870;28;20032;-53
2022/11/18 00:59:50;;;;;;;108.03;51.17;;;7.40;99.90;;;;;;5070324;28;20036;-51
2022/11/18 01:02:15;;;;;;;100.95;47.45;;;7.40;99.90;;;;;;5070228;28;20135;-51
2022/11/18 01:04:41;;;;;;;115.77;52.87;;;7.40;99.90;;;;;;5068190;28;20513;-51
2022/11/18 01:07:06;;;;;;;108.40;50.60;;;7.40;99.90;;;;;;5064708;28;20094;-53
2022/11/18 01:09:32;;;;;;;124.57;55.57;;;7.40;99.90;;;;;;5049892;28;20075;-51
2022/11/18 01:14:42;;;;;;;125.47;55.88;;;7.40;99.90;;;;;;5062311;28;20119;-52
2022/11/18 01:17:07;;;;;;;123.57;56.83;;;7.40;99.90;;;;;;5080538;28;20123;-51
2022/11/18 01:19:33;;;;;;;122.33;55.93;;;7.40;99.90;;;;;;5070255;28;20082;-53
2022/11/18 01:22:02;;;;;;;114.10;54.20;;;7.40;99.90;;;;;;5081080;28;20042;-52
2022/11/18 01:24:29;;;;;;;113.93;54.63;;;7.30;99.90;;;;;;5068459;28;20405;-50
2022/11/18 01:26:54;;;;;;;115.70;52.53;;;7.30;99.90;;;;;;5069878;28;20036;-52
2022/11/18 01:29:20;;;;;;;112.87;52.37;;;7.30;99.90;;;;;;5069226;28;20443;-53
2022/11/18 01:31:46;;;;;;;104.70;51.60;;;7.40;99.90;;;;;;5068888;28;20293;-51
2022/11/18 01:34:11;;;;;;;108.90;49.60;;;7.40;99.90;;;;;;5047360;28;20040;-55
2022/11/18 01:36:37;;;;;;;108.73;49.30;;;7.40;99.90;;;;;;5047684;28;20071;-52
2022/11/18 01:39:03;;;;;;;104.90;51.17;;;7.40;99.90;;;;;;5052562;28;20041;-51
2022/11/18 01:41:28;;;;;;;105.82;52.88;;;7.40;99.90;;;;;;5068367;28;20036;-51
2022/11/18 01:43:58;;;;;;;94.63;49.70;;;7.40;99.90;;;;;;5053959;28;20132;-53
2022/11/18 01:46:26;;;;;;;100.47;50.38;;;7.40;99.90;;;;;;5049213;28;20851;-54
2022/11/18 01:49:01;;;;;;;92.72;46.88;;;7.40;99.90;;;;;;5049819;28;20052;-54
2022/11/18 01:51:32;;;;;;;91.30;46.30;;;7.40;99.90;;;;;;5060723;28;20046;-53
2022/11/18 01:54:06;;;;;;;85.47;46.55;;;7.40;99.90;;;;;;5067774;28;20037;-54
2022/11/18 01:56:40;;;;;;;93.43;47.00;;;7.30;99.90;;;;;;5067800;28;20029;-55
2022/11/18 01:59:11;;;;;;;88.30;46.92;;;7.40;99.90;;;;;;5049668;28;20040;-55
2022/11/18 02:01:37;;;;;;;77.32;42.35;;;7.30;99.90;;;;;;5049453;28;20425;-51
2022/11/18 02:04:03;;;;;;;75.40;41.63;;;7.30;99.90;;;;;;5050034;28;20051;-54
2022/11/18 02:06:28;;;;;;;74.88;42.25;;;7.30;99.90;;;;;;5049945;28;20482;-51
2022/11/18 02:08:55;;;;;;;74.30;40.90;;;7.40;99.90;;;;;;5048660;28;20041;-56
2022/11/18 02:14:08;;;;;;;78.60;41.22;;;7.40;99.90;;;;;;5067242;28;19920;-51
2022/11/18 02:16:55;;;;;;;73.15;38.88;;;7.40;99.90;;;;;;5069130;28;20040;-51
2022/11/18 02:19:46;;;;;;;60.10;37.45;;;7.40;99.90;;;;;;5069141;28;20083;-55
2022/11/18 02:22:45;;;;;;;61.30;36.90;;;7.40;99.90;;;;;;5069120;28;20044;-53
2022/11/18 02:25:23;;;;;;;63.38;35.28;;;7.40;99.90;;;;;;5068130;28;20047;-55
2022/11/18 02:28:07;;;;;;;59.92;36.35;;;7.40;99.90;;;;;;5073298;28;20040;-55
2022/11/18 02:30:43;;;;;;;65.82;38.65;;;7.40;99.90;;;;;;5088562;28;20085;-54
2022/11/18 02:33:19;;;;;;;73.13;39.10;;;7.40;99.90;;;;;;5067482;28;20040;-54
2022/11/18 02:36:02;;;;;;;74.40;37.97;;;7.40;99.90;;;;;;5063229;28;20058;-55
2022/11/18 02:38:33;;;;;;;67.22;39.00;;;7.40;99.90;;;;;;5067918;28;20037;-51
2022/11/18 02:41:05;;;;;;;66.47;38.35;;;7.40;99.90;;;;;;5071433;28;20048;-51
2022/11/18 02:43:35;;;;;;;58.47;35.58;;;7.40;99.90;;;;;;5071690;28;20504;-52
2022/11/18 02:46:13;;;;;;;65.20;38.13;;;7.40;99.90;;;;;;5071997;28;20052;-52
2022/11/18 02:48:43;;;;;;;61.20;35.95;;;7.50;99.90;;;;;;5073002;28;20048;-55
2022/11/18 02:51:12;;;;;;;62.08;36.80;;;7.40;99.90;;;;;;5072639;28;20556;-51
2022/11/18 02:53:40;;;;;;;68.63;39.17;;;7.40;99.90;;;;;;5071020;28;20405;-54
2022/11/18 02:56:07;;;;;;;66.90;37.88;;;7.40;99.90;;;;;;5064501;28;20049;-51
2022/11/18 02:58:33;;;;;;;64.50;37.75;;;7.40;99.90;;;;;;5052744;28;20037;-53
2022/11/18 03:01:00;;;;;;;62.77;38.27;;;7.40;99.90;;;;;;5051367;28;20037;-51
2022/11/18 03:03:31;;;;;;;63.85;38.13;;;7.40;99.90;;;;;;5051200;28;20524;-52
2022/11/18 03:06:30;;;;;;;65.53;37.22;;;7.40;99.90;;;;;;5053227;28;20055;-57
2022/11/18 03:09:16;;;;;;;64.32;34.42;;;7.40;99.90;;;;;;5044267;28;20668;-52
2022/11/18 03:12:09;;;;;;;59.83;37.00;;;7.30;99.90;;;;;;5052410;28;20048;-51
2022/11/18 03:15:16;;;;;;;63.08;36.03;;;7.40;99.90;;;;;;5050402;28;20068;-51
2022/11/18 03:18:15;;;;;;;66.00;37.55;;;7.40;99.90;;;;;;5062659;28;20481;-54
2022/11/18 03:20:44;;;;;;;67.05;39.10;;;7.30;99.90;;;;;;5071822;28;20071;-53
2022/11/18 03:23:30;;;;;;;61.72;37.90;;;7.30;99.90;;;;;;5071144;28;20037;-50
2022/11/18 03:26:16;;;;;;;65.07;36.42;;;7.30;99.90;;;;;;5071843;28;20491;-53
2022/11/18 03:28:52;;;;;;;60.95;35.65;;;7.30;99.90;;;;;;5066284;28;20444;-51
2022/11/18 03:31:28;;;;;;;65.70;35.25;;;7.30;99.90;;;;;;5072168;28;20047;-51
2022/11/18 03:34:02;;;;;;;64.63;36.72;;;7.30;99.90;;;;;;5071388;28;20047;-51
2022/11/18 03:36:33;;;;;;;65.00;38.72;;;7.30;99.90;;;;;;5072661;28;20064;-50
2022/11/18 03:39:02;;;;;;;60.50;35.45;;;7.30;99.90;;;;;;5072417;28;20024;-54
2022/11/18 03:41:30;;;;;;;67.57;38.58;;;7.30;99.90;;;;;;5069328;28;20059;-51
2022/11/18 03:44:05;;;;;;;62.40;37.28;;;7.30;99.90;;;;;;5050933;28;20125;-52
2022/11/18 03:46:58;;;;;;;62.33;36.95;;;7.30;99.90;;;;;;5066833;28;20177;-51
2022/11/18 03:49:29;;;;;;;65.53;36.22;;;7.30;99.90;;;;;;5070193;28;20138;-53
2022/11/18 03:52:01;;;;;;;63.33;38.63;;;7.30;99.90;;;;;;5070853;28;20043;-51
2022/11/18 03:54:30;;;;;;;60.83;36.88;;;7.30;99.90;;;;;;5070632;28;20109;-54
2022/11/18 03:57:05;;;;;;;64.32;39.30;;;7.30;99.90;;;;;;5069018;28;20091;-52
2022/11/18 03:59:37;;;;;;;60.72;34.97;;;7.30;99.90;;;;;;5052081;28;20045;-52
2022/11/18 04:02:09;;;;;;;69.97;40.38;;;7.30;99.90;;;;;;5051712;28;20033;-51
2022/11/18 04:04:36;;;;;;;67.72;38.38;;;7.30;99.90;;;;;;5050129;28;20466;-52
2022/11/18 04:07:17;;;;;;;60.47;35.47;;;7.30;99.90;;;;;;5051587;28;20073;-54
2022/11/18 04:09:48;;;;;;;70.18;39.92;;;7.30;99.90;;;;;;5068774;28;20040;-51
2022/11/18 04:12:17;;;;;;;61.47;37.13;;;7.30;99.90;;;;;;5069760;28;20049;-51
2022/11/18 04:14:44;;;;;;;64.57;36.33;;;7.30;99.90;;;;;;5070020;28;20051;-54
2022/11/18 04:17:12;;;;;;;68.38;38.50;;;7.30;99.90;;;;;;5070955;28;20044;-51
2022/11/18 04:19:38;;;;;;;61.53;34.80;;;7.30;99.90;;;;;;5057367;28;20045;-52
2022/11/18 04:22:03;;;;;;;68.30;36.42;;;7.30;99.90;;;;;;5050953;28;20132;-51
2022/11/18 04:24:29;;;;;;;66.30;37.93;;;7.30;99.90;;;;;;5049830;28;20060;-52
2022/11/18 04:26:54;;;;;;;75.07;40.83;;;7.30;99.90;;;;;;5051058;28;20075;-52
2022/11/18 04:29:20;;;;;;;67.97;39.40;;;7.30;99.90;;;;;;5051589;28;20033;-56
2022/11/18 04:31:45;;;;;;;63.80;37.27;;;7.30;99.90;;;;;;5051123;28;20075;-53
2022/11/18 04:34:11;;;;;;;78.77;40.97;;;7.30;99.90;;;;;;5056816;28;20432;-54
2022/11/18 04:36:37;;;;;;;69.60;38.43;;;7.30;99.90;;;;;;5070446;28;20040;-54
2022/11/18 04:39:02;;;;;;;72.03;39.78;;;7.30;99.90;;;;;;5070261;28;20064;-51
2022/11/18 04:44:12;;;;;;;66.03;37.97;;;7.30;99.90;;;;;;5061474;28;20680;-53
2022/11/18 04:46:40;;;;;;;67.00;38.00;;;7.30;99.90;;;;;;5050235;28;20041;-56
2022/11/18 04:49:06;;;;;;;72.50;38.92;;;7.30;99.90;;;;;;5050701;28;20072;-53
2022/11/18 04:51:32;;;;;;;;;;;7.30;99.90;;;;;;5050944;28;20044;-57
2022/11/18 04:53:57;;;;;;;66.03;38.20;;;7.30;99.90;;;;;;5049525;28;19925;-53
2022/11/18 04:56:23;;;;;;;67.43;35.53;;;7.30;99.90;;;;;;5049763;28;20037;-55
2022/11/18 04:58:48;;;;;;;64.07;35.53;;;7.20;99.90;;;;;;5049599;28;20044;-53
2022/11/18 05:01:14;;;;;;;59.17;36.47;;;7.20;99.90;;;;;;5061053;28;20032;-51
2022/11/18 05:03:39;;;;;;;65.67;35.00;;;7.30;99.90;;;;;;5069122;28;20044;-53
2022/11/18 05:06:05;;;;;;;59.37;34.97;;;7.30;99.90;;;;;;5070008;28;20041;-53
2022/11/18 05:08:31;;;;;;;61.00;35.07;;;7.20;99.90;;;;;;5070403;28;20068;-51
2022/11/18 05:12:47;;;;;;;61.17;34.50;;;7.30;99.90;;;;;;5064205;28;20414;-54
2022/11/18 05:13:42;;;;;;;60.33;33.45;;;7.30;99.90;;;;;;5048930;28;20308;-54
2022/11/18 05:16:07;;;;;;;62.03;33.53;;;7.20;99.90;;;;;;5049692;28;20064;-55
2022/11/18 05:18:33;;;;;;;59.13;35.73;;;7.20;99.90;;;;;;5050384;28;20502;-51
2022/11/18 05:20:58;;;;;;;51.67;32.40;;;7.20;99.90;;;;;;5053531;28;20036;-51
2022/11/18 05:23:24;;;;;;;52.97;32.37;;;7.30;99.90;;;;;;5069238;28;20031;-55
2022/11/18 05:25:49;;;;;;;56.10;31.80;;;7.20;99.90;;;;;;5069269;28;20073;-50
2022/11/18 05:28:15;;;;;;;54.80;32.07;;;7.20;99.90;;;;;;5070152;28;20169;-51
2022/11/18 05:30:40;;;;;;;56.80;32.93;;;7.20;99.90;;;;;;5070002;28;20082;-53
2022/11/18 05:33:06;;;;;;;60.33;31.93;;;7.20;99.90;;;;;;5065564;28;20133;-51
2022/11/18 05:35:31;;;;;;;60.60;32.60;;;7.20;99.90;;;;;;5068088;28;20145;-51
2022/11/18 05:37:57;;;;;;;57.90;31.80;;;7.20;99.90;;;;;;5050146;28;20120;-56
2022/11/18 05:40:22;;;;;;;60.80;33.13;;;7.20;99.90;;;;;;5049907;28;20528;-56
2022/11/18 05:45:32;;;;;;;59.05;35.20;;;7.20;99.90;;;;;;5069415;28;20040;-51
2022/11/18 05:48:01;;;;;;;64.30;34.97;;;7.10;99.90;;;;;;5069892;28;20536;-53
2022/11/18 05:50:27;;;;;;;59.50;34.20;;;7.20;99.90;;;;;;5076728;28;20047;-54
2022/11/18 05:52:52;;;;;;;61.60;36.77;;;7.20;99.90;;;;;;5064333;28;20346;-59
2022/11/18 05:55:19;;;;;;;55.57;33.87;;;7.20;99.90;;;;;;5074158;28;20047;-50
2022/11/18 05:57:45;;;;;;;73.20;36.28;;;7.20;99.90;;;;;;5074933;28;20094;-53
2022/11/18 06:00:11;;;;;;;64.07;34.13;;;7.20;99.90;;;;;;5069649;28;20040;-51
2022/11/18 06:02:37;;;;;;;61.35;34.90;;;7.20;99.90;;;;;;5068972;28;20032;-51
2022/11/18 06:05:04;;;;;;;59.78;33.70;;;7.20;99.90;;;;;;5067857;28;20374;-51
2022/11/18 06:07:41;;;;;;;62.78;35.28;;;7.20;99.90;;;;;;5069303;28;20116;-54
2022/11/18 06:10:11;;;;;;;66.07;35.53;;;7.20;99.90;;;;;;5068235;28;20055;-50
2022/11/18 06:12:41;;;;;;;58.78;33.67;;;7.20;99.90;;;;;;5069617;28;20489;-51
2022/11/18 06:15:09;;;;;;;53.92;30.83;;;7.10;99.90;;;;;;5048105;28;20045;-55
2022/11/18 06:17:43;;;;;;;62.58;32.17;;;7.10;99.90;;;;;;5049562;28;20287;-51
2022/11/18 06:20:09;;;;;;;48.50;29.95;;;7.10;99.90;;;;;;5068070;28;20048;-52
2022/11/18 06:22:35;;;;;;;58.70;32.05;;;7.10;99.90;;;;;;5068149;28;20044;-54
2022/11/18 06:25:02;;;;;;;57.53;31.33;;;7.10;99.90;;;;;;5051109;28;20067;-53
2022/11/18 06:27:28;;;;;;;57.65;33.35;;;7.10;99.90;;;;;;5049179;28;20079;-52
2022/11/18 06:29:54;;;;;;;52.78;30.73;;;7.10;99.90;;;;;;5068761;28;20032;-53
2022/11/18 06:32:19;;;;;;;54.20;29.80;;;7.10;99.90;;;;;;5077996;28;20089;-53
2022/11/18 06:34:45;;;;;;;45.57;26.33;;;7.10;99.90;;;;;;5068116;28;20048;-52
2022/11/18 06:37:19;;;;;;;41.93;26.87;;;7.10;99.90;;;;;;5068919;28;20076;-51
2022/11/18 06:39:45;;;;;;;40.63;24.25;;;7.10;99.90;;;;;;5056280;28;20101;-54
2022/11/18 06:43:37;;;;;;;39.40;23.43;;;7.10;99.90;;;;;;5081226;28;20039;-55
2022/11/18 06:44:57;;;;;;;36.97;23.38;;;7.10;99.90;;;;;;5057812;28;20040;-55
2022/11/18 06:47:22;;;;;;;41.90;25.97;;;7.10;99.90;;;;;;5080161;28;20044;-53
2022/11/18 06:49:48;;;;;;;36.20;23.50;;;7.00;99.90;;;;;;5067329;28;20577;-55
2022/11/18 06:52:13;;;;;;;38.27;22.00;;;7.00;99.90;;;;;;5069014;28;20544;-54
2022/11/18 06:54:39;;;;;;;33.90;21.90;;;7.00;99.90;;;;;;5067145;28;20086;-51
2022/11/18 06:57:04;;;;;;;41.53;23.27;;;7.00;99.90;;;;;;5052180;28;20080;-53
2022/11/18 06:59:30;;;;;;;40.23;23.40;;;7.00;99.90;;;;;;5048686;28;20064;-55
2022/11/18 07:01:55;;;;;;;39.47;23.83;;;7.00;99.90;;;;;;5049155;28;20080;-52
2022/11/18 07:04:21;;;;;;;42.77;24.63;;;7.00;99.90;;;;;;5047789;28;20036;-54
2022/11/18 07:06:47;;;;;;;43.43;24.03;;;7.00;99.90;;;;;;5067404;28;20311;-55
2022/11/18 07:09:12;;;;;;;42.80;22.60;;;7.00;99.90;;;;;;5056381;28;20287;-51
2022/11/18 07:11:40;;;;;;;41.60;25.30;;;7.00;99.90;;;;;;5052391;28;20039;-51
2022/11/18 07:14:06;;;;;;;45.85;24.77;;;7.00;99.90;;;;;;5064824;28;20554;-56
2022/11/18 07:16:33;;;;;;;50.20;24.45;;;7.00;99.90;;;;;;5072313;28;20406;-51
2022/11/18 07:18:58;;;;;;;53.90;26.58;;;6.90;99.90;;;;;;5069843;28;20086;-53
2022/11/18 07:21:26;;;;;;;41.33;25.53;;;6.90;99.90;;;;;;5072452;28;20032;-53
2022/11/18 07:23:53;;;;;;;39.15;23.45;;;6.90;99.90;;;;;;5079099;28;20086;-55
2022/11/18 07:26:19;;;;;;;;;;;6.90;99.90;;;;;;5079736;28;20115;-57
2022/11/18 07:28:45;;;;;;;38.78;20.90;;;6.90;99.90;;;;;;5084816;28;20011;-54
2022/11/18 07:31:16;;;;;;;36.55;20.20;;;6.90;99.90;;;;;;5091946;28;20084;-54
2022/11/18 07:33:43;;;;;;;31.35;19.17;;;6.90;99.90;;;;;;5078819;28;20165;-56
2022/11/18 07:36:11;;;;;;;32.53;18.38;;;7.00;99.90;;;;;;5073087;28;20044;-52
2022/11/18 07:38:37;;;;;;;28.75;18.02;;;7.00;99.90;;;;;;5071970;28;20040;-53
2022/11/18 07:41:09;;;;;;;28.67;17.50;;;7.00;99.90;;;;;;5072545;28;20036;-55
2022/11/18 07:43:36;;;;;;;36.50;20.55;;;7.00;99.90;;;;;;5071451;28;20045;-49
2022/11/18 07:46:13;;;;;;;30.17;16.60;;;7.00;99.90;;;;;;5072792;28;20032;-49
2022/11/18 07:48:39;;;;;;;31.85;18.98;;;7.00;99.90;;;;;;5071933;28;20116;-51
2022/11/18 07:51:05;;;;;;;;;;;7.00;99.90;;;;;;5073278;28;20481;-49
2022/11/18 07:53:32;;;;;;;36.38;20.52;;;7.00;99.90;;;;;;5070051;28;19978;-50
2022/11/18 07:55:57;;;;;;;27.13;17.00;;;6.90;99.90;;;;;;5076156;28;20035;-50
2022/11/18 07:58:23;;;;;;;27.10;17.33;;;7.00;99.90;;;;;;5063065;28;20040;-52
2022/11/18 08:00:49;;;;;;;28.47;16.03;;;7.00;99.90;;;;;;5056366;28;20531;-53
2022/11/18 08:03:14;;;;;;;28.67;17.50;;;7.00;99.90;;;;;;5055925;28;20099;-50
2022/11/18 08:05:40;;;;;;;28.73;17.10;;;7.00;99.90;;;;;;5054086;28;20605;-48
2022/11/18 08:08:05;;;;;;;26.83;17.00;;;7.10;99.90;;;;;;5079775;28;20040;-51
2022/11/18 08:10:31;;;;;;;27.27;18.17;;;7.10;99.90;;;;;;5073697;28;20520;-52
2022/11/18 08:12:56;;;;;;;28.23;16.30;;;7.00;99.90;;;;;;5073743;28;20055;-51
2022/11/18 08:15:23;;;;;;;30.30;18.03;;;7.00;99.90;;;;;;5073498;28;20044;-50
2022/11/18 08:17:48;;;;;;;29.75;18.25;;;7.00;99.90;;;;;;5064829;28;20041;-49
2022/11/18 08:20:14;;;;;;;32.10;18.57;;;7.00;99.90;;;;;;5074143;28;20400;-50
2022/11/18 08:22:40;;;;;;;33.63;18.25;;;7.00;99.90;;;;;;5065000;28;20032;-53
2022/11/18 08:25:06;;;;;;;34.20;18.33;;;7.00;99.90;;;;;;5057100;28;20033;-51
2022/11/18 08:27:32;;;;;;;31.02;16.95;;;7.00;99.90;;;;;;5054443;28;20047;-51
2022/11/18 08:29:57;;;;;;;24.67;15.80;;;7.00;99.90;;;;;;5071086;28;20490;-55
2022/11/18 08:32:23;;;;;;;30.50;17.30;;;7.00;99.90;;;;;;5070798;28;20036;-53
2022/11/18 08:34:49;;;;;;;25.23;15.27;;;6.90;99.90;;;;;;5064683;28;20106;-50
2022/11/18 08:37:17;;;;;;;24.48;15.65;;;7.00;99.90;;;;;;5050494;28;20049;-50
2022/11/18 08:39:42;;;;;;;28.88;17.77;;;7.00;99.90;;;;;;5071309;28;20048;-51
2022/11/18 08:42:09;;;;;;;28.95;15.77;;;7.00;99.90;;;;;;5079829;28;20040;-52
2022/11/18 08:44:34;;;;;;;;;;;7.00;99.90;;;;;;5067802;28;20131;-50
2022/11/18 08:47:00;;;;;;;25.25;14.85;;;7.00;99.90;;;;;;5055014;28;20003;-53
2022/11/18 08:49:26;;;;;;;26.95;16.55;;;7.00;99.90;;;;;;5063019;28;20050;-55
2022/11/18 08:51:51;;;;;;;24.50;16.53;;;7.00;99.90;;;;;;5074778;28;20072;-55
2022/11/18 08:54:17;;;;;;;25.37;14.33;;;7.00;99.90;;;;;;5061056;28;20075;-52
2022/11/18 08:56:42;;;;;;;23.93;15.47;;;7.00;99.90;;;;;;5082348;28;20036;-54
2022/11/18 08:59:08;;;;;;;28.43;16.33;;;7.00;99.90;;;;;;5073813;28;20448;-58
2022/11/18 09:01:37;;;;;;;26.17;16.23;;;7.00;99.90;;;;;;5054739;28;20032;-54
2022/11/18 09:04:03;;;;;;;25.63;16.65;;;7.10;99.90;;;;;;5056771;28;20037;-56
2022/11/18 09:06:29;;;;;;;27.27;15.43;;;7.10;99.90;;;;;;5068205;28;20052;-55
2022/11/18 09:08:54;;;;;;;22.23;14.87;;;7.10;99.90;;;;;;5061503;28;20037;-53
2022/11/18 09:11:22;;;;;;;22.07;15.00;;;7.10;99.90;;;;;;5068969;28;20092;-50
2022/11/18 09:13:52;;;;;;;20.35;14.43;;;7.10;99.90;;;;;;5089858;28;20044;-52
2022/11/18 09:16:17;;;;;;;20.75;14.90;;;7.10;99.90;;;;;;5077415;28;20036;-51
2022/11/18 09:18:43;;;;;;;25.60;15.63;;;7.10;99.90;;;;;;5078874;28;20161;-56
2022/11/18 09:21:09;;;;;;;23.37;15.90;;;7.00;99.90;;;;;;5079352;28;20067;-56
2022/11/18 09:23:36;;;;;;;22.92;15.95;;;7.00;99.90;;;;;;5049452;28;20397;-54
2022/11/18 09:26:13;;;;;;;24.80;15.93;;;7.00;99.90;;;;;;5056078;28;20745;-54
2022/11/18 09:28:39;;;;;;;26.60;17.27;;;7.00;99.90;;;;;;5038263;28;20045;-53
2022/11/18 09:31:07;;;;;;;25.27;16.47;;;6.90;99.90;;;;;;5057608;28;20457;-51
2022/11/18 09:33:34;;;;;;;24.52;15.63;;;7.00;99.90;;;;;;5046448;28;20382;-54
2022/11/18 09:36:00;;;;;;;26.33;15.98;;;6.90;99.90;;;;;;5053762;28;20526;-52
2022/11/18 09:38:28;;;;;;;28.23;17.60;;;6.90;99.90;;;;;;5047138;28;20029;-54
2022/11/18 09:41:16;;;;;;;29.50;19.65;;;6.90;99.90;;;;;;5053518;28;20440;-56
2022/11/18 09:44:11;;;;;;;26.95;17.30;;;6.90;99.90;;;;;;5056448;28;20231;-53
2022/11/18 09:46:52;;;;;;;29.98;19.00;;;6.80;99.90;;;;;;5022884;28;20050;-51
2022/11/18 09:49:35;;;;;;;32.10;19.52;;;6.80;99.90;;;;;;5030745;28;20051;-51
2022/11/18 09:52:11;;;;;;;33.65;19.63;;;6.80;99.90;;;;;;5052875;28;20033;-55
2022/11/18 09:54:38;;;;;;;30.75;18.63;;;6.80;99.90;;;;;;5047331;28;20124;-57
2022/11/18 09:57:13;;;;;;;31.00;21.30;;;6.80;99.90;;;;;;5055410;28;20057;-54
2022/11/18 09:59:39;;;;;;;27.52;18.20;;;6.80;99.90;;;;;;5055065;28;20033;-52
2022/11/18 10:02:38;;;;;;;30.40;18.07;;;6.80;99.90;;;;;;5053592;28;20521;-55
2022/11/18 10:05:22;;;;;;;28.77;17.42;;;6.80;99.90;;;;;;5052104;28;20095;-55
2022/11/18 10:07:53;;;;;;;28.65;16.65;;;6.70;99.90;;;;;;5049991;28;20123;-54
2022/11/18 10:10:26;;;;;;;26.92;17.50;;;6.80;99.90;;;;;;5049268;28;20452;-52
2022/11/18 10:13:00;;;;;;;30.15;18.67;;;6.80;99.90;;;;;;5055967;28;20047;-60
2022/11/18 10:16:03;;;;;;;26.08;16.42;;;6.80;99.90;;;;;;5049317;28;20184;-51
2022/11/18 10:18:46;;;;;;;27.08;16.80;;;6.80;99.90;;;;;;5024090;28;20071;-54
2022/11/18 10:21:14;;;;;;;23.35;15.55;;;6.80;99.90;;;;;;5051144;28;20044;-50
2022/11/18 10:23:52;;;;;;;22.33;15.23;;;6.80;99.90;;;;;;5043258;28;20041;-56
2022/11/18 10:26:35;;;;;;;28.30;16.90;;;6.70;99.90;;;;;;5045906;28;20594;-52
2022/11/18 10:29:02;;;;;;;24.50;15.25;;;6.70;99.90;;;;;;5052244;28;20037;-54
2022/11/18 10:31:28;;;;;;;;;;;6.70;99.90;;;;;;5049760;28;20051;-54
2022/11/18 10:34:00;;;;;;;21.65;15.32;;;6.70;99.90;;;;;;5047717;28;19924;-53
2022/11/18 10:36:32;;;;;;;22.13;15.10;;;6.80;99.90;;;;;;5050957;28;20517;-51
2022/11/18 10:39:13;;;;;;;21.40;15.25;;;6.80;99.90;;;;;;5057951;28;20490;-54
2022/11/18 10:41:48;;;;;;;22.00;15.30;;;6.80;99.90;;;;;;5047466;28;20142;-53
2022/11/18 10:44:30;;;;;;;21.35;13.27;;;6.80;99.90;;;;;;5055245;28;20182;-51
2022/11/18 10:47:13;;;;;;;22.83;15.35;;;6.80;99.90;;;;;;5070880;28;20513;-55
2022/11/18 10:49:39;;;;;;;22.13;15.07;;;6.80;99.90;;;;;;5053939;28;20037;-53
2022/11/18 10:52:13;;;;;;;20.10;14.00;;;6.70;99.90;;;;;;5068132;28;20566;-54
2022/11/18 10:54:40;;;;;;;21.45;15.05;;;6.70;99.90;;;;;;5068115;28;20037;-51
2022/11/18 10:57:13;;;;;;;18.67;14.27;;;6.70;99.90;;;;;;5071664;28;20251;-51
2022/11/18 10:59:52;;;;;;;18.95;13.27;;;6.70;99.90;;;;;;5058098;28;20069;-50
2022/11/18 11:02:38;;;;;;;19.75;12.52;;;6.70;99.90;;;;;;5054637;28;20032;-50
2022/11/18 11:05:18;;;;;;;17.73;11.95;;;6.60;99.90;;;;;;5050190;28;20116;-53
2022/11/18 11:07:44;;;;;;;22.35;13.05;;;6.60;99.90;;;;;;5061118;28;20082;-54
2022/11/18 11:10:09;;;;;;;17.57;13.63;;;6.60;99.90;;;;;;5051952;28;20033;-55
2022/11/18 11:13:03;;;;;;;20.50;12.50;;;6.50;99.90;;;;;;5058170;28;20043;-50
2022/11/18 11:15:40;;;;;;;19.90;12.60;;;6.50;99.90;;;;;;5057002;28;20107;-54
2022/11/18 11:21:16;;;;;;;19.83;12.48;;;6.50;99.90;;;;;;5051560;28;20127;-54
2022/11/18 11:23:42;;;;;;;21.23;13.52;;;6.50;99.90;;;;;;5067378;28;20045;-50
2022/11/18 11:26:30;;;;;;;20.77;13.68;;;6.50;99.90;;;;;;5050951;28;20082;-50
2022/11/18 11:29:12;;;;;;;23.63;15.98;;;6.50;99.90;;;;;;5057906;28;20131;-51
2022/11/18 11:31:53;;;;;;;20.15;13.48;;;6.50;99.90;;;;;;5051489;28;20041;-53
2022/11/18 11:34:43;;;;;;;18.33;13.15;;;6.50;99.90;;;;;;5055483;28;20037;-50
2022/11/18 11:37:44;;;;;;;19.55;13.13;;;6.50;99.90;;;;;;5060709;28;20083;-55
2022/11/18 11:40:38;;;;;;;15.52;11.35;;;6.50;99.90;;;;;;5054511;28;20501;-53
2022/11/18 11:43:45;;;;;;;18.05;11.43;;;6.50;99.90;;;;;;5051366;28;20033;-53
2022/11/18 11:46:37;;;;;;;19.35;12.63;;;6.50;99.90;;;;;;5055146;28;20048;-53
2022/11/18 11:49:17;;;;;;;16.90;12.05;;;6.50;99.90;;;;;;5055924;28;20040;-54
2022/11/18 11:52:08;;;;;;;19.15;13.13;;;6.50;99.90;;;;;;5055056;28;20029;-57
2022/11/18 11:54:49;;;;;;;20.08;11.93;;;6.50;99.90;;;;;;5049281;28;20516;-56
2022/11/18 11:57:41;;;;;;;19.98;12.50;;;6.50;99.90;;;;;;5055088;28;20389;-50
2022/11/18 12:00:18;;;;;;;15.15;10.68;;;6.50;99.90;;;;;;5050915;28;20513;-50
2022/11/18 12:02:55;;;;;;;15.10;10.55;;;6.50;99.90;;;;;;5056220;28;20052;-54
2022/11/18 12:05:35;;;;;;;15.45;11.18;;;6.40;99.90;;;;;;5050094;28;20044;-52
2022/11/18 12:08:05;;;;;;;23.15;12.82;;;6.40;99.90;;;;;;5059255;28;20045;-56
2022/11/18 12:10:33;;;;;;;22.70;12.55;;;6.40;99.90;;;;;;5050970;28;20051;-53
2022/11/18 12:13:27;;;;;;;21.85;13.65;;;6.40;99.90;;;;;;5052528;28;20058;-54
2022/11/18 12:16:18;;;;;;;22.80;14.57;;;6.40;99.90;;;;;;5055650;28;20072;-51
2022/11/18 12:18:58;;;;;;;18.50;12.80;;;6.40;99.90;;;;;;5053268;28;20128;-51
2022/11/18 12:21:46;;;;;;;21.65;14.43;;;6.30;99.90;;;;;;5050210;28;20083;-54
2022/11/18 12:24:21;;;;;;;19.60;13.00;;;6.40;99.90;;;;;;5051603;28;20049;-52
2022/11/18 12:26:48;;;;;;;23.30;13.93;;;6.30;99.90;;;;;;5054313;28;20052;-53
2022/11/18 12:29:20;;;;;;;24.05;15.23;;;6.30;99.90;;;;;;5057028;28;20051;-55
2022/11/18 12:31:57;;;;;;;24.85;15.13;;;6.30;99.90;;;;;;5055234;28;20068;-54
2022/11/18 12:34:39;;;;;;;23.55;13.55;;;6.30;99.90;;;;;;5048366;28;20428;-54
2022/11/18 12:37:23;;;;;;;17.80;12.50;;;6.30;99.90;;;;;;5054979;28;20033;-54
2022/11/18 12:39:59;;;;;;;18.55;12.48;;;6.30;99.90;;;;;;5055456;28;20040;-50
2022/11/18 12:45:40;;;;;;;18.92;12.35;;;6.30;99.90;;;;;;5049474;28;20045;-51
2022/11/18 12:48:26;;;;;;;17.58;11.90;;;6.30;99.90;;;;;;5051163;28;20049;-55
2022/11/18 12:50:53;;;;;;;17.63;12.35;;;6.30;99.90;;;;;;5055930;28;20591;-53
2022/11/18 12:53:44;;;;;;;17.40;11.95;;;6.30;99.90;;;;;;5049775;28;20463;-53
2022/11/18 12:56:16;;;;;;;16.65;10.77;;;6.20;99.90;;;;;;5051301;28;20041;-50
2022/11/18 12:58:49;;;;;;;15.43;10.57;;;6.20;99.90;;;;;;5055468;28;20032;-52
2022/11/18 13:01:18;;;;;;;18.80;11.80;;;6.20;99.90;;;;;;5053489;28;20037;-52
2022/11/18 13:03:44;;;;;;;17.60;12.73;;;6.10;99.90;;;;;;5054326;28;20390;-54
2022/11/18 13:06:24;;;;;;;18.02;11.60;;;6.10;99.90;;;;;;5049381;28;20025;-55
2022/11/18 13:08:53;;;;;;;19.05;11.65;;;6.10;99.90;;;;;;5053335;28;20548;-50
2022/11/18 13:19:33;;;;;;;23.17;12.32;;;6.00;99.90;;;;;;5056163;28;20041;-51
2022/11/18 13:24:50;;;;;;;20.40;13.50;;;5.90;99.90;;;;;;5052993;28;20803;-51
2022/11/18 13:27:32;;;;;;;19.73;12.85;;;5.90;99.90;;;;;;5054074;28;20497;-50
2022/11/18 13:30:05;;;;;;;18.23;12.05;;;5.90;99.90;;;;;;5056013;28;20482;-53